createdAt,value
2022-11-05T00:02:01.356Z,3.30
2022-11-05T00:04:47.833Z,3.80
2022-11-05T00:08:04.901Z,2.90
2022-11-05T00:10:40.473Z,3.00
2022-11-05T00:13:28.298Z,2.70
2022-11-05T00:16:13.961Z,2.83
2022-11-05T00:18:40.393Z,2.83
2022-11-05T00:21:26.750Z,2.70
2022-11-05T00:24:11.882Z,2.90
2022-11-05T00:26:38.270Z,2.70
2022-11-05T00:29:04.642Z,2.77
2022-11-05T00:31:32.198Z,2.93
2022-11-05T00:33:58.598Z,2.93
2022-11-05T00:36:24.937Z,2.53
2022-11-05T00:38:51.427Z,3.00
2022-11-05T00:41:17.767Z,3.03
2022-11-05T00:44:02.985Z,2.50
2022-11-05T00:46:29.326Z,2.90
2022-11-05T00:49:14.037Z,2.73
2022-11-05T00:51:40.374Z,2.57
2022-11-05T00:54:06.901Z,2.20
2022-11-05T00:56:33.275Z,2.50
2022-11-05T00:58:59.712Z,2.30
2022-11-05T01:01:26.180Z,2.40
2022-11-05T01:03:52.665Z,2.03
2022-11-05T01:06:19.025Z,2.20
2022-11-05T01:08:46.770Z,2.30
2022-11-05T01:11:35.066Z,2.50
2022-11-05T01:14:13.291Z,2.70
2022-11-05T01:16:40.543Z,2.33
2022-11-05T01:19:09.812Z,1.80
2022-11-05T01:21:36.776Z,2.20
2022-11-05T01:24:04.005Z,2.30
2022-11-05T01:26:30.677Z,2.30
2022-11-05T01:29:00.378Z,2.20
2022-11-05T01:31:28.493Z,2.30
2022-11-05T01:33:55.279Z,2.57
2022-11-05T01:36:21.730Z,2.50
2022-11-05T01:38:48.199Z,2.43
2022-11-05T01:41:14.579Z,2.20
2022-11-05T01:43:50.024Z,2.00
2022-11-05T01:46:23.668Z,1.93
2022-11-05T01:48:56.166Z,2.20
2022-11-05T01:51:27.974Z,1.90
2022-11-05T01:54:01.485Z,1.50
2022-11-05T01:56:40.468Z,1.60
2022-11-05T01:59:11.598Z,1.80
2022-11-05T02:01:38.169Z,2.00
2022-11-05T02:04:10.380Z,1.90
2022-11-05T02:06:46.194Z,1.70
2022-11-05T02:09:19.978Z,1.77
2022-11-05T02:11:48.165Z,1.67
2022-11-05T02:14:21.296Z,1.57
2022-11-05T02:17:09.228Z,1.50
2022-11-05T02:19:44.358Z,1.43
2022-11-05T02:22:20.778Z,1.83
2022-11-05T02:25:24.838Z,1.40
2022-11-05T02:28:47.034Z,1.93
2022-11-05T02:31:32.711Z,1.67
2022-11-05T02:34:15.762Z,1.50
2022-11-05T02:37:12.325Z,1.80
2022-11-05T02:40:33.509Z,1.70
2022-11-05T02:43:19.475Z,1.80
2022-11-05T02:46:39.865Z,1.60
2022-11-05T02:49:28.412Z,2.00
2022-11-05T02:52:07.354Z,1.60
2022-11-05T02:55:14.104Z,1.90
2022-11-05T02:57:48.313Z,1.30
2022-11-05T03:00:51.259Z,1.33
2022-11-05T03:03:39.900Z,1.30
2022-11-05T03:06:41.074Z,1.40
2022-11-05T03:09:26.078Z,1.50
2022-11-05T03:11:58.521Z,1.50
2022-11-05T03:14:39.068Z,1.87
2022-11-05T03:17:30.976Z,1.63
2022-11-05T03:20:19.076Z,1.93
2022-11-05T03:23:26.393Z,1.77
2022-11-05T03:26:06.113Z,1.93
2022-11-05T03:28:35.683Z,1.77
2022-11-05T03:31:04.454Z,1.90
2022-11-05T03:33:33.438Z,2.40
2022-11-05T03:36:05.650Z,2.30
2022-11-05T03:38:36.854Z,1.93
2022-11-05T03:41:14.237Z,1.83
2022-11-05T03:43:45.108Z,1.90
2022-11-05T03:46:34.992Z,2.20
2022-11-05T03:49:04.402Z,2.10
2022-11-05T03:51:54.038Z,2.83
2022-11-05T03:54:20.815Z,2.27
2022-11-05T03:57:00.958Z,2.33
2022-11-05T03:59:29.134Z,2.13
2022-11-05T04:01:56.796Z,2.00
2022-11-05T04:04:23.484Z,2.00
2022-11-05T04:07:08.516Z,2.67
2022-11-05T04:09:53.387Z,2.60
2022-11-05T04:12:38.896Z,2.70
2022-11-05T04:15:15.529Z,2.50
2022-11-05T04:17:42.498Z,2.40
2022-11-05T04:20:29.242Z,2.80
2022-11-05T04:23:23.304Z,3.07
2022-11-05T04:25:54.190Z,2.57
2022-11-05T04:28:24.052Z,2.77
2022-11-05T04:30:50.883Z,2.73
2022-11-05T04:33:18.099Z,3.10
2022-11-05T04:35:49.143Z,3.47
2022-11-05T04:38:20.430Z,3.10
2022-11-05T04:40:48.350Z,3.30
2022-11-05T04:43:18.897Z,3.33
2022-11-05T04:46:11.272Z,3.17
2022-11-05T04:48:43.658Z,3.33
2022-11-05T04:51:15.610Z,3.60
2022-11-05T04:53:51.939Z,3.93
2022-11-05T04:56:24.522Z,3.97
2022-11-05T04:58:51.833Z,4.00
2022-11-05T05:01:21.446Z,3.60
2022-11-05T05:03:52.527Z,3.93
2022-11-05T05:06:19.606Z,4.67
2022-11-05T05:08:50.576Z,4.10
2022-11-05T05:11:19.834Z,4.00
2022-11-05T05:13:46.830Z,6.13
2022-11-05T05:16:31.033Z,5.03
2022-11-05T05:18:57.582Z,5.53
2022-11-05T05:21:38.874Z,4.53
2022-11-05T05:24:08.634Z,3.60
2022-11-05T05:26:36.806Z,4.17
2022-11-05T05:29:04.101Z,4.40
2022-11-05T05:31:30.519Z,4.27
2022-11-05T05:33:57.172Z,4.10
2022-11-05T05:36:23.986Z,4.03
2022-11-05T05:38:50.738Z,4.87
2022-11-05T05:41:17.716Z,3.57
2022-11-05T05:43:44.142Z,4.80
2022-11-05T05:46:12.616Z,4.53
2022-11-05T05:48:39.511Z,5.00
2022-11-05T05:51:08.617Z,4.10
2022-11-05T05:53:35.380Z,5.47
2022-11-05T05:56:01.811Z,4.93
2022-11-05T05:58:33.175Z,5.20
2022-11-05T06:01:09.597Z,5.50
2022-11-05T06:03:37.373Z,4.30
2022-11-05T06:06:05.886Z,5.33
2022-11-05T06:08:32.704Z,5.33
2022-11-05T06:11:00.124Z,4.80
2022-11-05T06:13:27.217Z,4.67
2022-11-05T06:15:53.942Z,5.70
2022-11-05T06:18:20.311Z,5.30
2022-11-05T06:20:46.744Z,5.90
2022-11-05T06:23:13.558Z,5.97
2022-11-05T06:25:41.366Z,5.20
2022-11-05T06:28:08.042Z,6.67
2022-11-05T06:30:34.457Z,6.30
2022-11-05T06:33:04.920Z,5.80
2022-11-05T06:35:32.149Z,6.30
2022-11-05T06:38:01.779Z,5.50
2022-11-05T06:40:29.493Z,7.10
2022-11-05T06:42:55.899Z,7.17
2022-11-05T06:45:22.567Z,6.97
2022-11-05T06:47:55.905Z,7.10
2022-11-05T06:50:22.697Z,6.77
2022-11-05T06:53:02.866Z,6.17
2022-11-05T06:55:31.254Z,7.03
2022-11-05T06:57:57.940Z,7.67
2022-11-05T07:00:24.680Z,7.30
2022-11-05T07:02:51.044Z,8.23
2022-11-05T07:05:17.720Z,7.60
2022-11-05T07:07:45.611Z,7.70
2022-11-05T07:10:15.141Z,7.67
2022-11-05T07:12:41.913Z,8.47
2022-11-05T07:15:09.347Z,7.13
2022-11-05T07:17:36.226Z,7.73
2022-11-05T07:20:03.773Z,6.80
2022-11-05T07:22:30.148Z,7.80
2022-11-05T07:24:56.510Z,7.83
2022-11-05T07:27:22.925Z,6.83
2022-11-05T07:29:49.431Z,8.63
2022-11-05T07:32:15.802Z,7.97
2022-11-05T07:34:42.555Z,7.30
2022-11-05T07:37:08.995Z,6.43
2022-11-05T07:39:35.453Z,6.70
2022-11-05T07:42:01.846Z,7.00
2022-11-05T07:44:28.510Z,8.17
2022-11-05T07:46:54.847Z,7.90
2022-11-05T07:49:21.221Z,7.90
2022-11-05T07:51:47.554Z,6.33
2022-11-05T07:54:13.895Z,7.67
2022-11-05T07:56:40.269Z,7.10
2022-11-05T07:59:06.752Z,7.60
2022-11-05T08:01:33.309Z,7.43
2022-11-05T08:03:59.813Z,7.80
2022-11-05T08:06:26.210Z,8.77
2022-11-05T08:08:52.629Z,7.40
2022-11-05T08:11:19.029Z,6.17
2022-11-05T08:13:45.727Z,7.50
2022-11-05T08:16:12.166Z,8.30
2022-11-05T08:18:38.530Z,7.73
2022-11-05T08:21:05.757Z,6.30
2022-11-05T08:23:32.893Z,7.13
2022-11-05T08:25:59.288Z,6.40
2022-11-05T08:28:26.339Z,7.40
2022-11-05T08:30:55.360Z,5.93
2022-11-05T08:33:23.358Z,5.50
2022-11-05T08:35:50.297Z,6.20
2022-11-05T08:38:18.830Z,5.03
2022-11-05T08:40:53.316Z,5.60
2022-11-05T08:43:19.701Z,3.73
2022-11-05T08:45:46.137Z,4.73
2022-11-05T08:48:15.343Z,4.10
2022-11-05T08:50:42.774Z,3.70
2022-11-05T08:53:10.464Z,4.10
2022-11-05T08:55:38.412Z,3.50
2022-11-05T08:58:07.553Z,3.23
2022-11-05T09:00:36.741Z,3.23
2022-11-05T09:03:06.810Z,3.37
2022-11-05T09:05:38.205Z,3.30
2022-11-05T09:08:06.712Z,3.00
2022-11-05T09:10:33.602Z,3.20
2022-11-05T09:12:59.975Z,3.03
2022-11-05T09:15:26.670Z,2.80
2022-11-05T09:17:53.076Z,2.43
2022-11-05T09:20:19.572Z,2.87
2022-11-05T09:22:46.692Z,2.70
2022-11-05T09:25:13.165Z,2.57
2022-11-05T09:27:39.537Z,2.53
2022-11-05T09:30:06.505Z,2.33
2022-11-05T09:32:33.114Z,3.00
2022-11-05T09:35:02.391Z,2.80
2022-11-05T09:37:29.414Z,1.80
2022-11-05T09:39:56.194Z,2.43
2022-11-05T09:42:26.228Z,3.07
2022-11-05T09:44:59.285Z,3.40
2022-11-05T09:48:01.376Z,3.20
2022-11-05T09:50:39.110Z,4.20
2022-11-05T09:53:06.362Z,3.80
2022-11-05T09:55:37.393Z,3.43
2022-11-05T09:58:14.457Z,4.13
2022-11-05T10:00:41.790Z,3.13
2022-11-05T10:03:14.084Z,4.27
2022-11-05T10:05:41.425Z,4.50
2022-11-05T10:08:18.119Z,3.53
2022-11-05T10:11:05.051Z,2.87
2022-11-05T10:13:47.094Z,4.60
2022-11-05T10:16:22.521Z,3.97
2022-11-05T10:18:55.172Z,4.40
2022-11-05T10:21:44.141Z,4.97
2022-11-05T10:24:15.033Z,4.43
2022-11-05T10:26:42.010Z,3.73
2022-11-05T10:29:13.082Z,3.90
2022-11-05T10:31:39.835Z,4.23
2022-11-05T10:34:08.333Z,5.40
2022-11-05T10:36:37.016Z,5.23
2022-11-05T10:39:23.307Z,6.03
2022-11-05T10:42:08.357Z,6.03
2022-11-05T10:44:48.425Z,4.07
2022-11-05T10:47:54.304Z,5.30
2022-11-05T10:50:25.241Z,3.57
2022-11-05T10:52:51.580Z,4.10
2022-11-05T10:55:24.884Z,4.27
2022-11-05T10:57:51.899Z,4.03
2022-11-05T11:00:25.914Z,3.20
2022-11-05T11:02:56.370Z,4.87
2022-11-05T11:05:38.625Z,4.23
2022-11-05T11:08:11.265Z,4.43
2022-11-05T11:10:48.773Z,4.87
2022-11-05T11:13:26.930Z,3.87
2022-11-05T11:15:54.986Z,4.30
2022-11-05T11:18:40.080Z,4.23
2022-11-05T11:21:14.113Z,4.07
2022-11-05T11:23:42.132Z,4.43
2022-11-05T11:26:11.393Z,4.27
2022-11-05T11:28:47.139Z,4.37
2022-11-05T11:31:22.003Z,4.60
2022-11-05T11:34:03.302Z,3.73
2022-11-05T11:36:45.852Z,4.53
2022-11-05T11:39:23.775Z,6.03
2022-11-05T11:42:01.922Z,4.77
2022-11-05T11:44:47.733Z,5.47
2022-11-05T11:47:23.567Z,5.47
2022-11-05T11:50:16.510Z,5.07
2022-11-05T11:52:46.882Z,5.30
2022-11-05T11:55:19.277Z,3.73
2022-11-05T11:58:02.863Z,4.53
2022-11-05T12:00:53.736Z,5.23
2022-11-05T12:03:44.924Z,3.63
2022-11-05T12:06:39.320Z,3.93
2022-11-05T12:09:41.518Z,4.20
2022-11-05T12:12:17.961Z,4.67
2022-11-05T12:15:06.754Z,5.30
2022-11-05T12:17:49.272Z,4.77
2022-11-05T12:20:44.775Z,4.67
2022-11-05T12:23:55.054Z,5.07
2022-11-05T12:26:49.866Z,5.10
2022-11-05T12:29:59.047Z,4.47
2022-11-05T12:32:49.525Z,4.30
2022-11-05T12:35:47.037Z,4.73
2022-11-05T12:38:38.298Z,4.63
2022-11-05T12:41:26.666Z,4.27
2022-11-05T12:44:06.067Z,4.47
2022-11-05T12:46:49.605Z,4.17
2022-11-05T12:49:36.730Z,4.30
2022-11-05T12:52:17.367Z,4.67
2022-11-05T12:55:04.282Z,3.47
2022-11-05T12:57:35.793Z,3.83
2022-11-05T13:00:08.530Z,3.63
2022-11-05T13:02:45.081Z,3.60
2022-11-05T13:05:38.658Z,3.93
2022-11-05T13:08:08.502Z,4.30
2022-11-05T13:10:45.840Z,3.27
2022-11-05T13:13:18.485Z,3.30
2022-11-05T13:15:53.746Z,3.10
2022-11-05T13:18:27.513Z,3.80
2022-11-05T13:20:56.337Z,4.23
2022-11-05T13:23:42.052Z,3.80
2022-11-05T13:26:19.820Z,3.57
2022-11-05T13:28:54.003Z,3.67
2022-11-05T13:31:28.418Z,3.47
2022-11-05T13:33:56.352Z,3.83
2022-11-05T13:36:49.485Z,4.33
2022-11-05T13:39:41.468Z,5.40
2022-11-05T13:42:39.601Z,5.30
2022-11-05T13:45:17.965Z,3.97
2022-11-05T13:48:18.495Z,3.30
2022-11-05T13:51:00.269Z,4.17
2022-11-05T13:53:54.347Z,3.50
2022-11-05T13:56:51.892Z,3.10
2022-11-05T13:59:37.208Z,3.27
2022-11-05T14:02:13.703Z,3.43
2022-11-05T14:05:01.837Z,3.00
2022-11-05T14:07:38.197Z,3.10
2022-11-05T14:10:28.955Z,2.70
2022-11-05T14:12:58.725Z,2.60
2022-11-05T14:15:28.394Z,2.57
2022-11-05T14:18:05.619Z,2.87
2022-11-05T14:20:31.906Z,2.37
2022-11-05T14:23:17.354Z,2.17
2022-11-05T14:25:43.734Z,2.00
2022-11-05T14:28:29.002Z,2.77
2022-11-05T14:30:55.404Z,2.70
2022-11-05T14:33:24.908Z,3.13
2022-11-05T14:35:52.960Z,3.00
2022-11-05T14:38:25.489Z,3.80
2022-11-05T14:41:00.685Z,3.57
2022-11-05T14:43:29.213Z,3.07
2022-11-05T14:46:00.738Z,2.97
2022-11-05T14:48:46.261Z,3.40
2022-11-05T14:51:30.995Z,3.43
2022-11-05T14:54:06.509Z,3.53
2022-11-05T14:56:55.854Z,3.40
2022-11-05T14:59:28.037Z,3.60
2022-11-05T15:01:57.610Z,2.90
2022-11-05T15:04:31.462Z,3.13
2022-11-05T15:07:04.187Z,3.17
2022-11-05T15:09:40.352Z,2.93
2022-11-05T15:12:09.923Z,3.43
2022-11-05T15:14:42.239Z,3.57
2022-11-05T15:17:30.261Z,3.67
2022-11-05T15:20:15.385Z,3.53
2022-11-05T15:22:45.198Z,2.90
2022-11-05T15:25:22.909Z,3.23
2022-11-05T15:27:52.445Z,4.13
2022-11-05T15:30:22.012Z,2.83
2022-11-05T15:32:48.471Z,3.80
2022-11-05T15:35:27.238Z,3.27
2022-11-05T15:38:01.830Z,3.57
2022-11-05T15:40:31.951Z,3.27
2022-11-05T15:43:10.513Z,3.47
2022-11-05T15:45:37.209Z,3.60
2022-11-05T15:48:13.249Z,3.73
2022-11-05T15:50:40.098Z,3.47
2022-11-05T15:53:47.451Z,3.77
2022-11-05T15:56:36.325Z,4.60
2022-11-05T15:59:19.644Z,3.37
2022-11-05T16:01:49.848Z,3.30
2022-11-05T16:04:22.424Z,3.23
2022-11-05T16:06:59.218Z,3.47
2022-11-05T16:09:28.559Z,3.20
2022-11-05T16:12:20.067Z,2.97
2022-11-05T16:15:08.396Z,2.90
2022-11-05T16:17:37.732Z,2.83
2022-11-05T16:20:32.120Z,2.90
2022-11-05T16:23:07.930Z,3.00
2022-11-05T16:25:42.949Z,2.47
2022-11-05T16:28:24.847Z,2.70
2022-11-05T16:30:53.739Z,2.93
2022-11-05T16:33:20.289Z,2.77
2022-11-05T16:35:49.331Z,4.07
2022-11-05T16:38:17.057Z,3.10
2022-11-05T16:40:44.254Z,3.50
2022-11-05T16:43:24.441Z,3.50
2022-11-05T16:45:57.070Z,3.97
2022-11-05T16:48:24.107Z,3.40
2022-11-05T16:50:50.483Z,3.30
2022-11-05T16:53:17.586Z,3.17
2022-11-05T16:55:45.410Z,3.37
2022-11-05T16:58:23.686Z,3.50
2022-11-05T17:00:52.391Z,3.37
2022-11-05T17:03:20.249Z,3.40
2022-11-05T17:05:46.921Z,3.83
2022-11-05T17:08:13.722Z,3.43
2022-11-05T17:10:40.618Z,3.47
2022-11-05T17:13:07.104Z,3.60
2022-11-05T17:15:37.178Z,3.37
2022-11-05T17:18:04.998Z,3.93
2022-11-05T17:20:39.979Z,3.13
2022-11-05T17:23:09.261Z,3.23
2022-11-05T17:25:36.107Z,3.53
2022-11-05T17:28:03.302Z,2.90
2022-11-05T17:30:30.164Z,2.87
2022-11-05T17:32:56.690Z,3.40
2022-11-05T17:35:23.429Z,3.03
2022-11-05T17:37:50.353Z,6.67
2022-11-05T17:40:18.879Z,7.40
2022-11-05T17:42:46.249Z,4.43
2022-11-05T17:45:13.222Z,5.40
2022-11-05T17:47:40.697Z,4.43
2022-11-05T17:50:09.712Z,4.00
2022-11-05T17:52:36.493Z,4.20
2022-11-05T17:55:05.295Z,3.53
2022-11-05T17:57:31.836Z,3.40
2022-11-05T17:59:58.297Z,3.60
2022-11-05T18:02:24.927Z,3.77
2022-11-05T18:04:51.539Z,3.27
2022-11-05T18:07:18.079Z,4.00
2022-11-05T18:09:44.562Z,3.80
2022-11-05T18:12:10.931Z,4.00
2022-11-05T18:14:37.498Z,3.87
2022-11-05T18:17:03.947Z,3.80
2022-11-05T18:19:30.455Z,4.37
2022-11-05T18:21:56.951Z,3.80
2022-11-05T18:24:23.527Z,4.20
2022-11-05T18:26:50.414Z,4.20
2022-11-05T18:29:16.960Z,4.50
2022-11-05T18:31:43.366Z,5.00
2022-11-05T18:34:10.374Z,4.93
2022-11-05T18:36:36.871Z,5.13
2022-11-05T18:39:05.296Z,5.80
2022-11-05T18:41:31.857Z,6.87
2022-11-05T18:43:59.877Z,5.50
2022-11-05T18:46:56.030Z,5.50
2022-11-05T18:49:13.652Z,6.63
2022-11-05T18:51:40.781Z,6.87
2022-11-05T18:54:08.531Z,6.97
2022-11-05T18:56:35.676Z,6.27
2022-11-05T18:59:30.022Z,6.87
2022-11-05T19:01:49.137Z,6.60
2022-11-05T19:04:15.756Z,5.93
2022-11-05T19:06:42.646Z,5.60
2022-11-05T19:09:11.911Z,5.53
2022-11-05T19:11:39.730Z,4.83
2022-11-05T19:14:07.212Z,4.50
2022-11-05T19:16:34.063Z,5.30
2022-11-05T19:19:02.501Z,5.00
2022-11-05T19:21:29.557Z,6.20
2022-11-05T19:24:00.139Z,6.77
2022-11-05T19:26:29.436Z,8.67
2022-11-05T19:28:58.774Z,10.70
2022-11-05T19:31:26.457Z,10.83
2022-11-05T19:33:54.012Z,7.63
2022-11-05T19:36:22.301Z,8.87
2022-11-05T19:39:00.953Z,12.80
2022-11-05T19:41:28.486Z,11.80
2022-11-05T19:43:58.057Z,16.00
2022-11-05T19:46:29.096Z,15.33
2022-11-05T19:48:55.715Z,16.47
2022-11-05T19:51:25.033Z,11.30
2022-11-05T19:53:52.901Z,13.83
2022-11-05T19:56:22.683Z,10.63
2022-11-05T19:58:49.348Z,8.87
2022-11-05T20:01:17.315Z,9.60
2022-11-05T20:03:47.443Z,8.17
2022-11-05T20:06:18.067Z,8.40
2022-11-05T20:09:14.854Z,7.83
2022-11-05T20:11:32.005Z,8.30
2022-11-05T20:14:01.703Z,8.50
2022-11-05T20:16:34.639Z,8.50
2022-11-05T20:19:01.442Z,8.60
2022-11-05T20:21:27.986Z,8.63
2022-11-05T20:23:56.796Z,8.93
2022-11-05T20:26:26.588Z,8.87
2022-11-05T20:28:53.696Z,9.37
2022-11-05T20:31:20.243Z,10.00
2022-11-05T20:33:46.910Z,9.03
2022-11-05T20:36:20.196Z,9.33
2022-11-05T20:38:52.175Z,8.80
2022-11-05T20:41:19.149Z,8.27
2022-11-05T20:43:46.789Z,9.10
2022-11-05T20:46:15.343Z,7.80
2022-11-05T20:48:42.500Z,8.83
2022-11-05T20:51:14.666Z,8.60
2022-11-05T20:53:41.761Z,7.43
2022-11-05T20:56:09.480Z,8.20
2022-11-05T20:58:37.564Z,7.73
2022-11-05T21:01:05.539Z,8.70
2022-11-05T21:03:32.206Z,7.13
2022-11-05T21:06:00.103Z,7.07
2022-11-05T21:08:28.582Z,6.67
2022-11-05T21:10:55.994Z,6.73
2022-11-05T21:13:23.138Z,7.40
2022-11-05T21:15:51.904Z,7.30
2022-11-05T21:18:27.323Z,8.27
2022-11-05T21:20:54.260Z,7.83
2022-11-05T21:23:21.471Z,8.30
2022-11-05T21:25:48.275Z,7.70
2022-11-05T21:28:18.721Z,6.93
2022-11-05T21:30:46.453Z,6.77
2022-11-05T21:33:14.523Z,6.73
2022-11-05T21:35:44.010Z,7.90
2022-11-05T21:38:11.829Z,6.83
2022-11-05T21:40:38.845Z,7.00
2022-11-05T21:43:05.491Z,7.73
2022-11-05T21:45:32.561Z,6.77
2022-11-05T21:47:59.282Z,7.03
2022-11-05T21:50:44.488Z,7.37
2022-11-05T21:53:40.706Z,7.57
2022-11-05T21:56:34.875Z,8.13
2022-11-05T21:59:19.931Z,7.87
2022-11-05T22:01:47.693Z,6.70
2022-11-05T22:04:14.197Z,7.30
2022-11-05T22:06:40.638Z,6.87
2022-11-05T22:09:07.064Z,6.57
2022-11-05T22:11:37.283Z,7.23
2022-11-05T22:14:04.202Z,9.17
2022-11-05T22:16:30.727Z,9.50
2022-11-05T22:18:57.695Z,9.60
2022-11-05T22:21:24.219Z,9.50
2022-11-05T22:23:52.019Z,10.23
2022-11-05T22:26:18.787Z,11.00
2022-11-05T22:28:45.286Z,11.30
2022-11-05T22:31:18.106Z,10.83
2022-11-05T22:33:44.639Z,10.87
2022-11-05T22:36:11.416Z,10.87
2022-11-05T22:38:38.338Z,11.23
2022-11-05T22:41:10.290Z,10.90
2022-11-05T22:43:37.381Z,10.00
2022-11-05T22:46:09.618Z,8.73
2022-11-05T22:48:36.960Z,7.30
2022-11-05T22:51:05.348Z,8.33
2022-11-05T22:53:33.691Z,7.97
2022-11-05T22:56:03.498Z,7.13
2022-11-05T22:58:29.891Z,7.27
2022-11-05T23:00:56.288Z,7.57
2022-11-05T23:03:25.107Z,6.73
2022-11-05T23:06:02.434Z,6.57
2022-11-05T23:08:47.882Z,6.50
2022-11-05T23:11:41.221Z,6.27
2022-11-05T23:14:10.858Z,6.27
2022-11-05T23:16:55.788Z,6.70
2022-11-05T23:19:41.600Z,6.20
2022-11-05T23:22:40.966Z,6.03
2022-11-05T23:25:09.909Z,6.47
2022-11-05T23:27:37.847Z,6.70
2022-11-05T23:30:11.682Z,6.87
2022-11-05T23:32:38.292Z,6.37
2022-11-05T23:35:05.571Z,6.30
2022-11-05T23:37:51.200Z,6.53
2022-11-05T23:40:21.616Z,6.10
2022-11-05T23:43:07.148Z,6.27
2022-11-05T23:45:52.426Z,5.77
2022-11-05T23:48:31.079Z,6.37
2022-11-05T23:50:59.643Z,6.30
2022-11-05T23:53:27.140Z,5.60
2022-11-05T23:55:53.550Z,6.47
2022-11-05T23:58:19.930Z,5.83
